Wymark, Canada
Current Conditions -  °F | °C
As of 2:00 AM on Thursday 27 Nov 2014 (Local Time) from CYYN Reporting Station
Overcast Overcast  
Wind Chill: 13°   Ceiling: 12000
Heat Index: 23°   Visibility: 9mi
Dew Point: 21°   Wind: 9mph
Humidity: 93%   Direction: 170°S
Pressure: 30.09"   Gusts: NA
Location:  50.11°N, 107.74°W
Report Text: CYYN 270800Z AUTO 17008KT 9SM SCT070 SCT093 OVC120 M05/M06 A3009 RMK SLP236
Loading
Personal Weather Stations






























Interactive Weather Map New forecast layout! Learn more

10-Day Weather Forecast

Advertisements
Track Severe Weather on mobile